Time;durP1;ratioP1;P1;durP2;ratioP2;P2;SDS_P1;SDS_P2;PMS_P1;PMS_P2;Temp;Humidity;BMP_temperature;BMP_pressure;BME280_temperature;BME280_humidity;BME280_pressure;Samples;Min_cycle;Max_cycle;Signal;HPM_P1;HPM_P2
2021/03/06 00:00:53;;;;;;;9.90;4.88;;;;;;;-0.99;100.00;102689.88;4984798;28;20046;-52
2021/03/06 00:03:22;;;;;;;7.28;4.18;;;;;;;-1.06;100.00;102695.28;4987329;28;20056;-51
2021/03/06 00:05:49;;;;;;;11.70;5.90;;;;;;;-1.19;100.00;102687.81;4988598;28;20382;-48
2021/03/06 00:08:16;;;;;;;11.18;6.35;;;;;;;-1.33;100.00;102696.03;4988031;28;20045;-52
2021/03/06 00:10:43;;;;;;;8.20;5.45;;;;;;;-1.12;100.00;102702.47;4987130;28;20426;-49
2021/03/06 00:13:10;;;;;;;25.92;11.07;;;;;;;-1.19;100.00;102712.28;4982785;28;20042;-51
2021/03/06 00:15:37;;;;;;;22.80;10.77;;;;;;;-1.21;100.00;102706.19;4986064;28;20046;-51
2021/03/06 00:18:05;;;;;;;13.35;7.38;;;;;;;-1.22;100.00;102699.22;4987845;28;20129;-52
2021/03/06 00:20:32;;;;;;;16.70;6.65;;;;;;;-1.25;100.00;102699.31;4985428;28;20194;-46
2021/03/06 00:22:59;;;;;;;13.10;5.78;;;;;;;-1.28;100.00;102702.88;4984542;28;20033;-49
2021/03/06 00:25:26;;;;;;;18.65;8.40;;;;;;;-1.23;100.00;102706.25;4984742;28;20031;-53
2021/03/06 00:27:53;;;;;;;28.88;14.35;;;;;;;-1.15;100.00;102706.03;4986331;28;20053;-52
2021/03/06 00:30:21;;;;;;;14.02;6.78;;;;;;;-1.12;100.00;102711.22;4989091;28;20050;-52
2021/03/06 00:32:49;;;;;;;13.38;7.15;;;;;;;-1.08;100.00;102710.22;4986797;28;20050;-52
2021/03/06 00:35:16;;;;;;;9.13;5.53;;;;;;;-0.97;100.00;102704.69;4987558;28;20039;-52
2021/03/06 00:37:43;;;;;;;11.88;5.80;;;;;;;-1.00;100.00;102710.00;4986570;28;20046;-49
2021/03/06 00:40:11;;;;;;;13.73;6.18;;;;;;;-1.07;100.00;102706.69;4984893;28;20042;-53
2021/03/06 00:42:38;;;;;;;8.80;5.82;;;;;;;-1.29;100.00;102710.78;4988536;28;20303;-51
2021/03/06 00:45:07;;;;;;;11.98;5.63;;;;;;;-1.37;100.00;102712.75;4981350;28;20132;-49
2021/03/06 00:47:34;;;;;;;16.73;6.25;;;;;;;-1.51;100.00;102716.56;4985385;28;20047;-51
2021/03/06 00:50:05;;;;;;;11.90;5.85;;;;;;;-1.61;100.00;102715.09;4989759;28;20457;-53
2021/03/06 00:52:32;;;;;;;13.23;7.97;;;;;;;-1.70;100.00;102720.53;4987347;28;20372;-52
2021/03/06 00:54:59;;;;;;;12.32;6.00;;;;;;;-1.56;100.00;102718.44;4984831;28;20041;-52
2021/03/06 00:57:26;;;;;;;9.50;5.40;;;;;;;-1.60;100.00;102722.06;4987813;28;20046;-51
2021/03/06 00:59:52;;;;;;;10.48;5.30;;;;;;;-1.59;100.00;102714.16;4986611;28;20038;-51
2021/03/06 01:02:19;;;;;;;15.57;5.30;;;;;;;-1.70;100.00;102723.16;4987801;28;20452;-51
2021/03/06 01:04:46;;;;;;;11.02;6.40;;;;;;;-1.61;100.00;102709.84;4986160;28;20034;-51
2021/03/06 01:07:14;;;;;;;11.75;4.97;;;;;;;-1.49;100.00;102716.53;4987157;28;20450;-50
2021/03/06 01:09:41;;;;;;;10.63;6.20;;;;;;;-1.66;100.00;102722.19;4983496;28;20042;-51
2021/03/06 01:12:08;;;;;;;9.30;5.68;;;;;;;-1.59;100.00;102715.91;4987392;28;20054;-52
2021/03/06 01:14:35;;;;;;;11.55;7.20;;;;;;;-1.63;100.00;102715.13;4986500;28;20048;-51
2021/03/06 01:17:02;;;;;;;13.20;6.10;;;;;;;-1.71;100.00;102713.59;4987987;28;20054;-49
2021/03/06 01:19:29;;;;;;;14.48;5.88;;;;;;;-1.76;100.00;102711.94;4986634;28;20046;-52
2021/03/06 01:21:56;;;;;;;10.68;5.30;;;;;;;-1.68;100.00;102713.50;4987811;28;20042;-51
2021/03/06 01:24:36;;;;;;;18.88;7.55;;;;;;;-1.69;100.00;102706.53;4985376;28;20426;-52
2021/03/06 01:27:03;;;;;;;14.65;6.00;;;;;;;-1.73;100.00;102708.38;4986969;28;20158;-51
2021/03/06 01:29:30;;;;;;;13.38;6.68;;;;;;;-1.68;100.00;102700.41;4983513;28;20048;-51
2021/03/06 01:31:57;;;;;;;10.48;5.13;;;;;;;-1.59;100.00;102702.78;4988401;28;20312;-50
2021/03/06 01:34:24;;;;;;;7.00;5.30;;;;;;;-1.57;100.00;102708.88;4986475;28;20038;-49
2021/03/06 01:36:52;;;;;;;6.80;5.10;;;;;;;-1.64;100.00;102694.22;4986360;28;20125;-50
2021/03/06 01:39:19;;;;;;;10.20;4.82;;;;;;;-1.70;100.00;102699.56;4984850;28;20527;-49
2021/03/06 01:41:47;;;;;;;9.90;5.25;;;;;;;-1.72;100.00;102694.38;4986342;28;20289;-51
2021/03/06 01:44:14;;;;;;;10.30;5.50;;;;;;;-1.68;100.00;102689.94;4982891;28;20376;-49
2021/03/06 01:46:41;;;;;;;10.55;5.55;;;;;;;-1.65;100.00;102684.63;4986086;28;20117;-51
2021/03/06 01:49:08;;;;;;;9.52;5.28;;;;;;;-1.65;100.00;102682.84;4986151;28;20050;-52
2021/03/06 01:51:36;;;;;;;9.15;5.40;;;;;;;-1.69;100.00;102685.59;4989567;28;20101;-47
2021/03/06 01:54:04;;;;;;;13.25;4.82;;;;;;;-1.68;100.00;102693.41;4982060;28;20047;-51
2021/03/06 01:56:32;;;;;;;9.07;5.13;;;;;;;-1.70;100.00;102689.97;4988390;28;20057;-51
2021/03/06 01:59:00;;;;;;;8.77;4.82;;;;;;;-1.68;100.00;102697.78;4986703;28;20347;-49
2021/03/06 02:01:28;;;;;;;12.68;6.25;;;;;;;-1.72;100.00;102697.00;4985519;28;20048;-50
2021/03/06 02:03:57;;;;;;;8.27;5.15;;;;;;;-1.89;100.00;102694.78;4981815;28;20077;-49
2021/03/06 02:06:24;;;;;;;11.00;5.03;;;;;;;-2.01;100.00;102692.44;4989060;28;20046;-51
2021/03/06 02:08:51;;;;;;;11.60;5.18;;;;;;;-2.02;100.00;102694.22;4983739;28;20046;-50
2021/03/06 02:11:29;;;;;;;9.23;5.40;;;;;;;-2.03;100.00;102692.47;4988190;28;20073;-52
2021/03/06 02:14:03;;;;;;;9.38;4.95;;;;;;;-2.09;100.00;102690.00;4984369;28;20077;-51
2021/03/06 02:16:36;;;;;;;15.15;5.28;;;;;;;-1.95;100.00;102692.31;4985945;28;20054;-51
2021/03/06 02:19:08;;;;;;;9.75;5.60;;;;;;;-1.91;100.00;102686.97;4986642;28;20069;-50
2021/03/06 02:21:36;;;;;;;9.15;5.15;;;;;;;-1.75;100.00;102687.44;4988616;28;20335;-52
2021/03/06 02:24:42;;;;;;;9.50;5.40;;;;;;;-1.77;100.00;102681.41;4987448;28;20046;-51
2021/03/06 02:27:22;;;;;;;12.88;5.13;;;;;;;-1.82;100.00;102674.53;4918367;28;20380;-48
2021/03/06 02:29:53;;;;;;;9.80;6.13;;;;;;;-1.94;100.00;102686.19;4986244;28;20054;-52
2021/03/06 02:32:22;;;;;;;12.43;5.50;;;;;;;-2.01;100.00;102689.81;4991190;28;20042;-52
2021/03/06 02:35:09;;;;;;;8.98;5.70;;;;;;;-1.98;100.00;102681.91;4987187;28;20137;-47
2021/03/06 02:37:39;;;;;;;13.20;5.68;;;;;;;-2.13;100.00;102676.13;4990471;28;20041;-51
2021/03/06 02:40:07;;;;;;;8.75;5.22;;;;;;;-2.21;100.00;102675.47;4986050;28;20054;-52
2021/03/06 02:42:35;;;;;;;12.60;5.57;;;;;;;-2.20;100.00;102671.91;4987837;28;20314;-52
2021/03/06 02:45:04;;;;;;;8.32;4.88;;;;;;;-2.09;100.00;102664.69;4983698;28;20065;-54
2021/03/06 02:47:31;;;;;;;19.23;5.88;;;;;;;-2.15;100.00;102666.59;4988791;28;20055;-50
2021/03/06 02:49:59;;;;;;;11.07;5.63;;;;;;;-2.05;100.00;102672.50;4991067;28;20330;-51
2021/03/06 02:52:26;;;;;;;10.85;5.82;;;;;;;-2.16;100.00;102676.19;4990133;28;20338;-52
2021/03/06 02:54:54;;;;;;;12.73;5.53;;;;;;;-2.06;100.00;102670.75;4986124;28;20072;-54
2021/03/06 02:58:04;;;;;;;9.70;5.30;;;;;;;-2.25;100.00;102668.56;4988390;28;20038;-52
2021/03/06 03:00:38;;;;;;;14.13;5.55;;;;;;;-2.26;100.00;102666.84;4953502;28;20347;-53
2021/03/06 03:03:13;;;;;;;12.15;5.90;;;;;;;-2.34;100.00;102668.75;4988736;28;20046;-52
2021/03/06 03:05:46;;;;;;;8.70;5.70;;;;;;;-2.39;100.00;102657.56;4987195;28;20054;-52
2021/03/06 03:08:19;;;;;;;11.43;6.05;;;;;;;-2.23;100.00;102658.91;4990062;28;20046;-50
2021/03/06 03:10:49;;;;;;;8.55;5.82;;;;;;;-2.20;100.00;102663.22;4987427;28;20366;-54
2021/03/06 03:13:21;;;;;;;12.30;6.50;;;;;;;-2.31;100.00;102661.72;4987801;28;20047;-49
2021/03/06 03:15:51;;;;;;;10.68;5.93;;;;;;;-2.33;100.00;102662.63;4985937;28;20042;-52
2021/03/06 03:18:22;;;;;;;15.10;6.13;;;;;;;-2.33;100.00;102663.50;4984441;28;20046;-51
2021/03/06 03:20:52;;;;;;;14.43;5.95;;;;;;;-2.34;100.00;102661.78;4986032;28;20038;-51
2021/03/06 03:23:22;;;;;;;10.65;6.25;;;;;;;-2.33;100.00;102660.03;4988055;28;20136;-53
2021/03/06 03:26:03;;;;;;;10.77;5.70;;;;;;;-2.33;100.00;102665.25;4989989;28;20043;-52
2021/03/06 03:28:31;;;;;;;10.35;5.88;;;;;;;-2.56;100.00;102666.63;4985828;28;20305;-51
2021/03/06 03:31:01;;;;;;;13.32;7.15;;;;;;;-2.54;100.00;102670.03;4983409;28;20070;-51
2021/03/06 03:33:29;;;;;;;10.13;6.38;;;;;;;-2.61;100.00;102663.22;4987323;28;20039;-52
2021/03/06 03:35:57;;;;;;;11.55;7.03;;;;;;;-2.78;100.00;102664.47;4985946;28;20524;-51
2021/03/06 03:38:24;;;;;;;16.13;7.03;;;;;;;-2.67;100.00;102673.84;4988729;28;20426;-48
2021/03/06 03:40:52;;;;;;;14.85;7.63;;;;;;;-2.87;100.00;102672.47;4986736;28;20065;-51
2021/03/06 03:43:19;;;;;;;14.55;8.00;;;;;;;-2.96;100.00;102675.28;4986671;28;20623;-53
2021/03/06 03:45:46;;;;;;;16.90;7.70;;;;;;;-3.16;100.00;102673.03;4990241;28;20038;-53
2021/03/06 03:48:14;;;;;;;20.85;8.02;;;;;;;-3.30;100.00;102675.94;4983915;28;20107;-51
2021/03/06 03:50:41;;;;;;;15.80;8.10;;;;;;;-3.28;100.00;102671.53;4985009;28;20051;-47
2021/03/06 03:53:08;;;;;;;13.20;7.35;;;;;;;-3.30;100.00;102687.22;4988369;28;20378;-53
2021/03/06 03:55:35;;;;;;;12.27;8.10;;;;;;;-3.08;100.00;102673.75;4984682;28;20066;-48
2021/03/06 03:58:02;;;;;;;12.20;8.05;;;;;;;-3.00;100.00;102671.00;4988513;28;20050;-53
2021/03/06 04:00:30;;;;;;;17.75;9.52;;;;;;;-3.17;100.00;102679.19;4986016;28;20055;-51
2021/03/06 04:03:00;;;;;;;18.40;8.40;;;;;;;-3.05;100.00;102676.31;4986815;28;20426;-50
2021/03/06 04:05:29;;;;;;;15.85;9.07;;;;;;;-2.81;100.00;102682.84;4986517;28;20289;-50
2021/03/06 04:07:56;;;;;;;14.32;8.45;;;;;;;-2.52;100.00;102683.09;4987159;28;20043;-54
2021/03/06 04:10:25;;;;;;;13.00;7.82;;;;;;;-2.61;100.00;102678.94;4989128;28;20053;-51
2021/03/06 04:12:53;;;;;;;15.85;8.80;;;;;;;-2.92;100.00;102679.56;4988746;28;20046;-50
2021/03/06 04:15:22;;;;;;;13.75;9.25;;;;;;;-3.21;100.00;102682.72;4986440;28;20038;-51
2021/03/06 04:17:49;;;;;;;19.92;9.18;;;;;;;-3.22;100.00;102681.00;4986801;28;20055;-51
2021/03/06 04:20:18;;;;;;;15.30;9.73;;;;;;;-3.21;100.00;102685.34;4988742;28;20066;-49
2021/03/06 04:22:46;;;;;;;20.55;10.77;;;;;;;-3.34;100.00;102697.78;4990687;28;20646;-51
2021/03/06 04:25:13;;;;;;;15.88;9.20;;;;;;;-2.94;100.00;102697.88;4985059;28;20335;-53
2021/03/06 04:27:40;;;;;;;17.60;9.93;;;;;;;-3.00;100.00;102697.16;4989545;28;20427;-53
2021/03/06 04:30:08;;;;;;;20.13;10.13;;;;;;;-2.94;100.00;102699.66;4988529;28;20073;-51
2021/03/06 04:32:36;;;;;;;16.35;10.10;;;;;;;-2.89;100.00;102703.03;4985241;28;20057;-51
2021/03/06 04:35:03;;;;;;;19.10;10.68;;;;;;;-2.90;100.00;102703.94;4987498;28;20129;-52
2021/03/06 04:37:30;;;;;;;19.13;10.32;;;;;;;-3.02;100.00;102704.16;4988068;28;20053;-52
2021/03/06 04:39:58;;;;;;;15.20;10.43;;;;;;;-2.93;100.00;102701.38;4985106;28;20462;-53
2021/03/06 04:42:25;;;;;;;13.30;10.20;;;;;;;-2.79;100.00;102707.19;4988582;28;20061;-50
2021/03/06 04:44:52;;;;;;;18.88;11.05;;;;;;;-2.93;100.00;102704.00;4982868;28;20046;-51
2021/03/06 04:47:19;;;;;;;19.00;10.20;;;;;;;-3.12;100.00;102703.47;4985275;28;20050;-53
2021/03/06 04:49:46;;;;;;;17.80;11.02;;;;;;;-3.36;100.00;102710.00;4988984;28;20399;-52
2021/03/06 04:52:13;;;;;;;19.55;10.77;;;;;;;-3.26;100.00;102706.34;4987061;28;20459;-52
2021/03/06 04:54:40;;;;;;;16.73;10.85;;;;;;;-3.07;100.00;102709.47;4984972;28;20041;-49
2021/03/06 04:57:11;;;;;;;12.77;10.20;;;;;;;-3.32;100.00;102711.66;4984593;28;20510;-53
2021/03/06 04:59:38;;;;;;;19.98;10.02;;;;;;;-3.36;100.00;102704.75;4986797;28;20042;-53
2021/03/06 05:02:04;;;;;;;23.40;13.10;;;;;;;-3.46;100.00;102702.31;4988034;28;20054;-53
2021/03/06 05:04:32;;;;;;;19.42;11.40;;;;;;;-3.21;100.00;102707.09;4985257;28;20049;-52
2021/03/06 05:06:59;;;;;;;21.85;11.75;;;;;;;-3.41;100.00;102701.38;4988378;28;20052;-51
2021/03/06 05:09:26;;;;;;;20.08;11.85;;;;;;;-3.56;100.00;102703.34;4986471;28;20442;-51
2021/03/06 05:11:53;;;;;;;21.15;12.07;;;;;;;-3.56;100.00;102698.13;4985561;28;20050;-52
2021/03/06 05:14:21;;;;;;;18.25;12.32;;;;;;;-3.52;100.00;102710.25;4985782;28;20043;-52
2021/03/06 05:16:48;;;;;;;16.13;11.27;;;;;;;-3.69;100.00;102705.31;4984620;28;20076;-53
2021/03/06 05:19:15;;;;;;;16.20;11.57;;;;;;;-3.87;100.00;102711.69;4988869;28;20088;-50
2021/03/06 05:21:42;;;;;;;19.52;11.57;;;;;;;-3.80;100.00;102712.44;4988317;28;20039;-52
2021/03/06 05:24:10;;;;;;;23.50;13.05;;;;;;;-3.65;100.00;102711.34;4981297;28;20042;-53
2021/03/06 05:26:37;;;;;;;20.30;12.05;;;;;;;-3.67;100.00;102706.16;4981620;28;20046;-52
2021/03/06 05:29:04;;;;;;;25.33;14.05;;;;;;;-3.64;100.00;102710.47;4985382;28;20042;-52
2021/03/06 05:31:32;;;;;;;21.15;14.07;;;;;;;-3.33;100.00;102710.81;4987116;28;20069;-52
2021/03/06 05:33:59;;;;;;;19.85;13.38;;;;;;;-3.25;100.00;102715.88;4983828;28;20058;-51
2021/03/06 05:36:26;;;;;;;21.45;13.35;;;;;;;-3.19;100.00;102713.19;4983182;28;20042;-53
2021/03/06 05:38:53;;;;;;;21.85;13.15;;;;;;;-3.03;100.00;102719.00;4987359;28;20042;-51
2021/03/06 05:41:20;;;;;;;20.65;12.13;;;;;;;-3.07;100.00;102711.25;4985811;28;20138;-53
2021/03/06 05:43:47;;;;;;;20.98;12.30;;;;;;;-3.23;100.00;102711.50;4985367;28;20046;-49
2021/03/06 05:46:14;;;;;;;21.80;12.73;;;;;;;-3.47;100.00;102711.03;4984039;28;20105;-52
2021/03/06 05:48:43;;;;;;;23.23;12.50;;;;;;;-3.61;100.00;102713.03;4983273;28;20500;-49
2021/03/06 05:51:11;;;;;;;22.65;13.32;;;;;;;-3.61;100.00;102710.41;4984163;28;20136;-51
2021/03/06 05:53:40;;;;;;;20.25;13.48;;;;;;;-3.78;100.00;102712.41;4984163;28;20045;-50
2021/03/06 05:56:08;;;;;;;22.40;14.73;;;;;;;-3.82;100.00;102712.47;4985862;28;20046;-51
2021/03/06 05:58:35;;;;;;;22.13;14.85;;;;;;;-3.92;100.00;102705.66;4985269;28;20050;-50
2021/03/06 06:01:03;;;;;;;21.65;13.27;;;;;;;-4.02;100.00;102710.16;4983391;28;20050;-47
2021/03/06 06:03:30;;;;;;;19.35;12.38;;;;;;;-4.27;100.00;102714.84;4982477;28;20061;-51
2021/03/06 06:05:58;;;;;;;23.10;14.05;;;;;;;-4.10;100.00;102711.16;4981896;28;20065;-47
2021/03/06 06:08:26;;;;;;;27.52;15.68;;;;;;;-3.97;100.00;102717.91;4982601;28;20117;-52
2021/03/06 06:10:52;;;;;;;23.35;15.13;;;;;;;-4.06;100.00;102720.69;4983785;28;20058;-52
2021/03/06 06:13:20;;;;;;;19.92;13.07;;;;;;;-4.33;100.00;102723.63;4980553;28;20430;-52
2021/03/06 06:15:47;;;;;;;23.77;15.88;;;;;;;-4.15;100.00;102719.91;4983819;28;20046;-53
2021/03/06 06:18:14;;;;;;;27.27;17.30;;;;;;;-4.00;100.00;102718.84;4979702;28;20101;-55
2021/03/06 06:20:42;;;;;;;29.10;16.08;;;;;;;-4.06;100.00;102718.06;4977058;28;20370;-53
2021/03/06 06:23:11;;;;;;;20.05;14.45;;;;;;;-4.05;100.00;102718.03;4977773;28;20059;-54
2021/03/06 06:25:41;;;;;;;23.00;14.88;;;;;;;-4.10;100.00;102719.00;4973803;28;20046;-53
2021/03/06 06:28:17;;;;;;;25.70;14.55;;;;;;;-4.16;100.00;102718.19;4975920;28;20343;-54
2021/03/06 06:31:07;;;;;;;27.75;15.45;;;;;;;-3.98;100.00;102721.44;4974664;28;20043;-53
2021/03/06 06:33:35;;;;;;;28.67;16.50;;;;;;;-4.15;100.00;102725.13;4971790;28;20046;-53
2021/03/06 06:36:02;;;;;;;31.70;16.75;;;;;;;-4.05;100.00;102725.88;4976731;28;20042;-53
2021/03/06 06:38:41;;;;;;;26.50;15.68;;;;;;;-3.84;100.00;102724.69;4976006;28;20046;-54
2021/03/06 06:41:07;;;;;;;27.02;16.23;;;;;;;-3.88;100.00;102728.25;4980108;28;20035;-54
2021/03/06 06:43:34;;;;;;;25.08;15.80;;;;;;;-3.62;100.00;102724.34;4976107;28;20065;-54
2021/03/06 06:46:01;;;;;;;24.70;15.85;;;;;;;-3.46;100.00;102730.19;4976149;28;20374;-49
2021/03/06 06:48:28;;;;;;;23.10;13.88;;;;;;;-3.30;100.00;102736.03;4975624;28;20074;-54
2021/03/06 06:51:07;;;;;;;18.55;13.93;;;;;;;-3.17;100.00;102721.84;4977840;28;20076;-53
2021/03/06 06:53:35;;;;;;;17.33;12.50;;;;;;;-3.01;100.00;102722.41;4975056;28;21463;-52
2021/03/06 06:56:02;;;;;;;25.42;12.50;;;;;;;-2.74;100.00;102724.56;4981557;28;20085;-54
2021/03/06 06:58:42;;;;;;;20.63;12.57;;;;;;;-2.46;100.00;102736.16;4978598;28;20441;-52
2021/03/06 07:01:30;;;;;;;24.38;14.45;;;;;;;-2.75;100.00;102733.28;4979575;28;20450;-49
2021/03/06 07:04:03;;;;;;;18.42;11.18;;;;;;;-2.55;100.00;102733.75;4976957;28;20049;-54
2021/03/06 07:06:30;;;;;;;16.13;11.60;;;;;;;-2.54;100.00;102742.47;4979092;28;20049;-54
2021/03/06 07:09:12;;;;;;;21.50;11.95;;;;;;;-2.55;100.00;102746.84;4980621;28;20053;-55
2021/03/06 07:11:40;;;;;;;17.42;10.85;;;;;;;-2.37;100.00;102742.09;4976917;28;20066;-56
2021/03/06 07:14:08;;;;;;;21.98;11.05;;;;;;;-1.88;100.00;102748.03;4975797;28;20054;-56
2021/03/06 07:17:00;;;;;;;15.10;10.80;;;;;;;-1.40;100.00;102753.00;4981449;28;20042;-55
2021/03/06 07:19:30;;;;;;;16.98;10.07;;;;;;;-1.66;100.00;102746.66;4985523;28;20441;-57
2021/03/06 07:21:59;;;;;;;23.40;10.48;;;;;;;-1.72;100.00;102752.00;4985849;28;20054;-55
2021/03/06 07:24:27;;;;;;;16.33;9.55;;;;;;;-1.47;100.00;102757.53;4987531;28;20089;-56
2021/03/06 07:26:55;;;;;;;16.40;9.57;;;;;;;-1.06;100.00;102763.47;4982593;28;20050;-57
2021/03/06 07:29:22;;;;;;;18.25;10.05;;;;;;;-1.11;100.00;102756.63;4979961;28;20042;-57
2021/03/06 07:31:51;;;;;;;17.83;10.52;;;;;;;-1.09;100.00;102766.19;4988859;28;20465;-57
2021/03/06 07:34:20;;;;;;;14.70;9.18;;;;;;;-1.65;100.00;102769.31;4986068;28;20053;-56
2021/03/06 07:36:47;;;;;;;20.17;9.43;;;;;;;-1.48;100.00;102766.28;4989168;28;20043;-57
2021/03/06 07:39:15;;;;;;;13.00;9.50;;;;;;;-1.36;100.00;102762.53;4989939;28;20121;-55
2021/03/06 07:41:48;;;;;;;14.70;10.77;;;;;;;-0.86;100.00;102769.97;4984455;28;20049;-56
2021/03/06 07:44:19;;;;;;;15.27;10.32;;;;;;;-1.35;100.00;102768.63;4984771;28;20442;-57
2021/03/06 07:46:46;;;;;;;15.15;9.25;;;;;;;-0.95;100.00;102765.84;4983354;28;20048;-55
2021/03/06 07:49:13;;;;;;;14.55;10.07;;;;;;;-0.73;100.00;102758.22;4984745;28;20486;-58
2021/03/06 07:51:42;;;;;;;15.60;9.25;;;;;;;-0.46;100.00;102758.38;4986188;28;20042;-56
2021/03/06 07:54:11;;;;;;;16.27;9.75;;;;;;;-0.49;100.00;102768.97;4985493;28;20053;-57
2021/03/06 07:56:39;;;;;;;13.45;9.55;;;;;;;-0.39;100.00;102775.66;4985690;28;20465;-56
2021/03/06 07:59:47;;;;;;;16.35;9.10;;;;;;;-0.07;100.00;102763.34;4983803;28;20042;-56
2021/03/06 08:02:37;;;;;;;16.33;10.10;;;;;;;0.22;100.00;102756.34;4981702;28;20380;-57
2021/03/06 08:05:07;;;;;;;11.18;6.93;;;;;;;0.26;100.00;102760.59;4981045;28;20057;-55
2021/03/06 08:07:40;;;;;;;25.08;12.05;;;;;;;0.28;100.00;102756.13;4983328;28;20055;-54
2021/03/06 08:10:09;;;;;;;10.10;7.60;;;;;;;0.53;100.00;102751.88;4984437;28;20042;-54
2021/03/06 08:12:36;;;;;;;10.40;7.00;;;;;;;0.62;100.00;102764.69;4991627;28;20054;-56
2021/03/06 08:15:32;;;;;;;12.85;9.68;;;;;;;0.70;100.00;102754.78;4985493;28;20355;-56
2021/03/06 08:18:00;;;;;;;14.40;8.15;;;;;;;0.97;100.00;102755.63;4962676;28;20065;-54
2021/03/06 08:20:30;;;;;;;11.35;7.45;;;;;;;1.00;100.00;102744.97;4987335;28;20050;-57
2021/03/06 08:23:20;;;;;;;14.05;7.93;;;;;;;1.13;100.00;102760.34;4989144;28;20441;-56
2021/03/06 08:26:27;;;;;;;10.57;7.53;;;;;;;1.07;100.00;102764.06;4983986;28;20042;-57
2021/03/06 08:28:55;;;;;;;12.10;7.97;;;;;;;1.15;100.00;102767.28;4987015;28;20049;-56
2021/03/06 08:31:38;;;;;;;12.68;7.22;;;;;;;1.25;100.00;102757.28;4985077;28;20066;-57
2021/03/06 08:34:27;;;;;;;9.27;6.53;;;;;;;1.27;100.00;102755.44;4976161;28;20050;-56
2021/03/06 08:37:30;;;;;;;9.73;6.28;;;;;;;1.47;100.00;102757.34;4987507;28;20038;-55
2021/03/06 08:39:59;;;;;;;11.63;5.70;;;;;;;1.47;100.00;102759.13;4988070;28;20125;-56
2021/03/06 08:42:27;;;;;;;8.75;6.68;;;;;;;1.61;100.00;102754.22;4986586;28;20045;-55
2021/03/06 08:44:55;;;;;;;8.07;6.05;;;;;;;1.74;100.00;102753.75;4983800;28;20050;-56
2021/03/06 08:47:24;;;;;;;10.18;5.93;;;;;;;1.95;100.00;102754.72;4987940;28;20054;-58
2021/03/06 08:49:53;;;;;;;10.00;5.97;;;;;;;1.95;100.00;102755.56;4986567;28;20101;-57
2021/03/06 08:52:20;;;;;;;9.10;5.22;;;;;;;1.96;100.00;102748.53;4983606;28;20077;-57
2021/03/06 08:54:47;;;;;;;10.18;6.63;;;;;;;1.99;100.00;102748.41;4980292;28;20042;-58
2021/03/06 08:57:25;;;;;;;9.23;6.72;;;;;;;2.11;100.00;102750.53;4984982;28;20034;-56
2021/03/06 09:00:10;;;;;;;10.45;6.72;;;;;;;2.30;100.00;102753.31;4981789;28;20054;-55
2021/03/06 09:02:37;;;;;;;8.23;5.97;;;;;;;2.29;100.00;102767.41;4983679;28;20327;-57
2021/03/06 09:05:08;;;;;;;8.73;5.85;;;;;;;2.54;100.00;102759.38;4983424;28;20051;-56
2021/03/06 09:07:37;;;;;;;11.60;5.50;;;;;;;2.63;100.00;102752.84;4984242;28;20042;-55
2021/03/06 09:10:27;;;;;;;12.77;6.00;;;;;;;3.27;100.00;102756.28;4987746;28;20046;-57
2021/03/06 09:12:55;;;;;;;14.25;5.55;;;;;;;3.51;100.00;102749.03;4985074;28;20050;-57
2021/03/06 09:15:37;;;;;;;11.65;5.65;;;;;;;3.77;100.00;102755.78;4983370;28;20038;-57
2021/03/06 09:18:07;;;;;;;9.75;5.35;;;;;;;3.98;100.00;102742.47;4976267;28;20423;-54
2021/03/06 09:20:52;;;;;;;10.68;5.57;;;;;;;4.43;100.00;102754.41;4982066;28;20054;-56
2021/03/06 09:23:30;;;;;;;10.43;5.43;;;;;;;4.22;100.00;102745.72;4983756;28;20057;-56
2021/03/06 09:25:59;;;;;;;8.32;5.50;;;;;;;4.39;100.00;102750.19;4985713;28;20046;-57
2021/03/06 09:28:28;;;;;;;9.25;5.93;;;;;;;4.67;100.00;102745.34;4986542;28;20042;-58
2021/03/06 09:30:57;;;;;;;7.13;5.45;;;;;;;4.91;100.00;102748.53;4982313;28;20041;-57
2021/03/06 09:33:30;;;;;;;7.93;4.88;;;;;;;4.89;100.00;102747.72;4980721;28;20468;-56
2021/03/06 09:36:00;;;;;;;8.27;4.32;;;;;;;4.62;100.00;102741.13;4984252;28;20042;-56
2021/03/06 09:38:41;;;;;;;8.55;5.22;;;;;;;4.60;100.00;102744.78;4981720;28;20108;-57
2021/03/06 09:41:09;;;;;;;7.45;4.97;;;;;;;4.82;100.00;102740.09;4983521;28;20453;-56
2021/03/06 09:43:37;;;;;;;9.35;5.38;;;;;;;5.03;100.00;102742.56;4965811;28;20047;-57
2021/03/06 09:46:13;;;;;;;7.43;5.63;;;;;;;5.02;100.00;102734.72;4982255;28;20042;-55
2021/03/06 09:48:48;;;;;;;9.95;5.57;;;;;;;5.28;100.00;102726.25;4982833;28;20050;-55
2021/03/06 09:51:15;;;;;;;11.73;5.97;;;;;;;5.76;100.00;102738.72;4978028;28;20042;-55
2021/03/06 09:53:42;;;;;;;7.80;3.78;;;;;;;5.72;100.00;102743.34;4979042;28;20050;-57
2021/03/06 09:56:11;;;;;;;5.88;3.85;;;;;;;6.22;100.00;102732.66;4982013;28;20485;-59
2021/03/06 09:58:39;;;;;;;5.60;3.28;;;;;;;5.69;100.00;102746.16;4980747;28;20050;-56
2021/03/06 10:01:16;;;;;;;4.65;3.53;;;;;;;5.71;100.00;102738.13;4983479;28;20058;-55
2021/03/06 10:03:44;;;;;;;5.03;3.45;;;;;;;5.39;100.00;102738.06;4983338;28;20080;-56
2021/03/06 10:06:13;;;;;;;7.97;4.18;;;;;;;5.81;100.00;102745.50;4985640;28;20046;-56
2021/03/06 10:08:45;;;;;;;8.13;4.80;;;;;;;6.24;98.12;102736.94;4981780;28;20461;-56
2021/03/06 10:11:14;;;;;;;8.48;4.68;;;;;;;6.42;100.00;102735.03;4986936;28;20065;-57
2021/03/06 10:13:43;;;;;;;10.93;5.45;;;;;;;6.29;97.54;102745.47;4981072;28;20046;-58
2021/03/06 10:16:10;;;;;;;6.05;4.03;;;;;;;6.70;98.29;102741.38;4981301;28;20065;-56
2021/03/06 10:18:40;;;;;;;9.35;4.07;;;;;;;6.93;96.14;102744.44;4984554;28;20046;-57
2021/03/06 10:21:20;;;;;;;5.07;3.95;;;;;;;7.10;100.00;102749.59;4986618;28;20050;-56
2021/03/06 10:23:47;;;;;;;5.63;4.00;;;;;;;6.81;81.66;102741.59;4982397;28;20355;-57
2021/03/06 10:26:19;;;;;;;6.22;4.10;;;;;;;6.35;83.13;102741.63;4987016;28;20034;-56
2021/03/06 10:28:46;;;;;;;6.72;4.75;;;;;;;6.97;93.94;102736.19;4985005;28;20342;-56
2021/03/06 10:31:32;;;;;;;8.00;4.18;;;;;;;7.64;100.00;102735.66;4982167;28;20133;-57
2021/03/06 10:34:05;;;;;;;5.28;4.60;;;;;;;7.47;100.00;102739.38;4979042;28;20134;-54
2021/03/06 10:36:33;;;;;;;7.28;3.95;;;;;;;7.78;72.93;102741.91;4983311;28;20048;-55
2021/03/06 10:39:12;;;;;;;10.55;4.60;;;;;;;7.90;73.51;102733.97;4981036;28;20061;-57
2021/03/06 10:41:39;;;;;;;6.93;4.15;;;;;;;6.95;73.14;102726.63;4983205;28;20057;-57
2021/03/06 10:44:06;;;;;;;6.43;4.03;;;;;;;6.69;57.41;102732.56;4985963;28;20046;-56
2021/03/06 10:46:35;;;;;;;6.25;4.25;;;;;;;6.67;82.50;102728.28;4984967;28;20048;-56
2021/03/06 10:49:04;;;;;;;7.80;4.38;;;;;;;7.22;93.97;102737.38;4987172;28;20133;-56
2021/03/06 10:51:43;;;;;;;6.60;4.35;;;;;;;6.99;75.88;102736.97;4985087;28;20054;-56
2021/03/06 10:54:11;;;;;;;6.22;3.65;;;;;;;7.68;63.20;102738.97;4980060;28;20042;-55
2021/03/06 10:56:39;;;;;;;6.10;4.28;;;;;;;7.12;63.83;102736.25;4984664;28;20050;-56
2021/03/06 10:59:06;;;;;;;6.55;4.28;;;;;;;6.75;63.25;102726.03;4982301;28;20050;-55
2021/03/06 11:01:44;;;;;;;8.35;4.53;;;;;;;6.74;62.18;102719.00;4983666;28;20451;-56
2021/03/06 11:04:24;;;;;;;7.63;4.38;;;;;;;7.34;77.34;102726.00;4976876;28;20121;-55
2021/03/06 11:06:56;;;;;;;7.25;4.20;;;;;;;7.73;60.55;102731.56;4982940;28;20045;-56
2021/03/06 11:09:27;;;;;;;6.75;3.75;;;;;;;7.47;57.64;102731.41;4984034;28;20049;-56
2021/03/06 11:11:55;;;;;;;9.05;3.58;;;;;;;7.95;83.81;102728.34;4986069;28;20240;-57
2021/03/06 11:14:26;;;;;;;5.95;4.25;;;;;;;7.98;52.21;102716.66;4986002;28;20457;-58
2021/03/06 11:16:54;;;;;;;7.90;3.63;;;;;;;8.32;54.04;102722.44;4981886;28;20056;-58
2021/03/06 11:19:22;;;;;;;14.52;4.85;;;;;;;6.70;61.08;102715.66;4991433;28;20069;-56
2021/03/06 11:21:49;;;;;;;7.30;4.60;;;;;;;8.07;63.70;102710.75;4990032;28;20053;-56
2021/03/06 11:24:17;;;;;;;8.65;5.90;;;;;;;7.09;56.04;102710.72;4984291;28;20050;-57
2021/03/06 11:26:44;;;;;;;8.65;4.35;;;;;;;7.58;56.49;102715.63;4991497;28;20069;-57